Time;durP1;ratioP1;P1;durP2;ratioP2;P2;SDS_P1;SDS_P2;PMS_P1;PMS_P2;Temp;Humidity;BMP_temperature;BMP_pressure;BME280_temperature;BME280_humidity;BME280_pressure;Samples;Min_cycle;Max_cycle;Signal;HPM_P1;HPM_P2
2021/10/20 00:01:35;;;;;;;5.20;3.30;;;15.40;1.00;;;;;;5019218;28;20546;-89
2021/10/20 00:04:01;;;;;;;3.77;2.93;;;15.40;1.00;;;;;;5025338;28;21284;-86
2021/10/20 00:06:27;;;;;;;4.73;2.80;;;15.50;1.00;;;;;;5023942;28;20481;-88
2021/10/20 00:08:53;;;;;;;4.93;2.73;;;15.50;1.00;;;;;;5031429;28;20552;-87
2021/10/20 00:11:19;;;;;;;4.10;2.70;;;15.50;1.00;;;;;;5023603;28;20199;-86
2021/10/20 00:13:45;;;;;;;4.90;2.80;;;15.60;1.00;;;;;;5024976;28;20179;-87
2021/10/20 00:16:11;;;;;;;3.80;2.63;;;15.50;1.00;;;;;;5029710;28;20476;-85
2021/10/20 00:18:36;;;;;;;8.03;3.30;;;15.50;1.00;;;;;;5026599;28;20798;-86
2021/10/20 00:21:05;;;;;;;8.57;3.17;;;15.50;1.00;;;;;;5027677;28;20600;-87
2021/10/20 00:23:31;;;;;;;4.63;2.80;;;15.60;1.00;;;;;;5023991;28;20187;-87
2021/10/20 00:25:56;;;;;;;3.80;2.70;;;15.50;1.00;;;;;;5029637;28;20467;-86
2021/10/20 00:28:22;;;;;;;3.40;3.10;;;15.50;1.00;;;;;;5027222;28;20806;-88
2021/10/20 00:30:48;;;;;;;5.33;3.20;;;15.50;1.00;;;;;;5022365;28;20594;-90
2021/10/20 00:33:14;;;;;;;5.67;2.93;;;15.40;1.00;;;;;;5029075;28;20438;-86
2021/10/20 00:35:40;;;;;;;5.83;2.70;;;15.50;1.00;;;;;;5024280;28;20242;-86
2021/10/20 00:38:05;;;;;;;3.30;2.37;;;15.50;1.00;;;;;;5028954;28;20281;-85
2021/10/20 00:40:31;;;;;;;5.20;3.30;;;15.40;1.00;;;;;;5026194;28;20853;-86
2021/10/20 00:42:56;;;;;;;4.30;2.80;;;15.30;1.00;;;;;;5006771;28;20670;-87
2021/10/20 00:45:22;;;;;;;11.90;3.33;;;15.40;1.00;;;;;;5029419;28;20206;-86
2021/10/20 00:47:48;;;;;;;4.80;2.97;;;15.50;1.00;;;;;;5026149;28;20928;-87
2021/10/20 00:50:14;;;;;;;5.30;3.10;;;15.40;1.00;;;;;;5023124;28;20187;-88
2021/10/20 00:52:41;;;;;;;3.47;2.83;;;15.40;1.00;;;;;;5026618;28;20590;-85
2021/10/20 00:55:08;;;;;;;4.57;3.17;;;15.50;1.00;;;;;;5029180;28;20450;-87
2021/10/20 00:57:34;;;;;;;6.00;3.17;;;15.50;1.00;;;;;;5026091;28;20464;-88
2021/10/20 01:00:02;;;;;;;5.87;3.50;;;15.50;1.00;;;;;;5027171;28;20449;-88
2021/10/20 01:02:28;;;;;;;7.70;3.90;;;15.50;1.00;;;;;;5023783;28;20453;-86
2021/10/20 01:04:53;;;;;;;4.20;3.30;;;15.40;1.00;;;;;;5025933;28;20438;-86
2021/10/20 01:07:21;;;;;;;4.60;3.07;;;15.40;1.00;;;;;;5028193;28;20198;-86
2021/10/20 01:09:47;;;;;;;6.60;3.00;;;15.40;1.00;;;;;;5018113;28;20218;-87
2021/10/20 01:12:15;;;;;;;6.63;3.17;;;15.30;1.00;;;;;;5025915;28;20662;-87
2021/10/20 01:14:41;;;;;;;4.67;3.23;;;15.40;1.00;;;;;;5024249;28;20449;-87
2021/10/20 01:17:07;;;;;;;4.33;3.20;;;15.30;1.00;;;;;;5022624;28;20535;-91
2021/10/20 01:19:34;;;;;;;4.23;3.23;;;15.40;1.00;;;;;;5028005;28;21832;-88
2021/10/20 01:22:00;;;;;;;4.57;3.50;;;15.40;1.00;;;;;;5024560;28;20195;-87
2021/10/20 01:24:25;;;;;;;4.60;3.20;;;15.40;1.00;;;;;;5028260;28;20755;-86
2021/10/20 01:26:53;;;;;;;4.80;3.00;;;15.30;1.00;;;;;;5025614;28;20462;-85
2021/10/20 01:29:20;;;;;;;3.90;3.07;;;15.20;1.00;;;;;;5021490;28;20973;-84
2021/10/20 01:31:47;;;;;;;6.23;3.40;;;15.20;1.00;;;;;;5024664;28;21192;-89
2021/10/20 01:34:13;;;;;;;4.90;2.90;;;15.20;1.00;;;;;;5022981;28;20445;-87
2021/10/20 01:36:39;;;;;;;4.50;2.60;;;15.20;1.00;;;;;;5022745;28;20485;-86
2021/10/20 01:39:05;;;;;;;4.10;3.27;;;15.20;1.00;;;;;;5026395;28;20199;-87
2021/10/20 01:41:33;;;;;;;4.77;3.67;;;15.20;1.00;;;;;;5026159;28;20517;-88
2021/10/20 01:43:59;;;;;;;4.10;3.10;;;15.30;1.00;;;;;;5021794;28;20596;-86
2021/10/20 01:46:25;;;;;;;3.93;3.07;;;15.10;1.00;;;;;;5024068;28;20556;-88
2021/10/20 01:48:51;;;;;;;5.40;3.40;;;15.00;1.00;;;;;;5024468;28;20184;-88
2021/10/20 01:51:17;;;;;;;4.87;3.67;;;15.10;1.00;;;;;;5030329;28;20225;-87
2021/10/20 01:53:43;;;;;;;4.47;3.10;;;15.00;1.00;;;;;;5028044;28;20453;-88
2021/10/20 01:56:11;;;;;;;4.33;3.47;;;15.10;1.00;;;;;;5030075;28;20576;-87
2021/10/20 01:58:37;;;;;;;5.00;3.03;;;15.10;1.00;;;;;;5026751;28;20477;-86
2021/10/20 02:01:09;;;;;;;4.37;3.10;;;15.00;1.00;;;;;;5019343;28;20449;-88
2021/10/20 02:03:37;;;;;;;5.30;3.70;;;14.90;1.00;;;;;;5024952;28;20440;-87
2021/10/20 02:06:08;;;;;;;5.83;3.77;;;15.00;1.00;;;;;;5029735;28;20449;-87
2021/10/20 02:08:33;;;;;;;5.40;3.37;;;15.00;1.00;;;;;;5026446;28;20530;-87
2021/10/20 02:10:59;;;;;;;6.07;3.50;;;14.90;1.00;;;;;;5027946;28;21126;-88
2021/10/20 02:13:25;;;;;;;4.17;3.13;;;15.00;1.00;;;;;;5025474;28;20822;-86
2021/10/20 02:15:52;;;;;;;5.50;2.90;;;15.00;1.00;;;;;;5023925;28;20281;-86
2021/10/20 02:18:18;;;;;;;5.97;3.37;;;15.00;1.00;;;;;;5029447;28;20446;-85
2021/10/20 02:20:44;;;;;;;3.30;2.80;;;15.00;1.00;;;;;;5025466;28;20496;-87
2021/10/20 02:23:10;;;;;;;4.40;3.40;;;14.90;1.00;;;;;;5024646;28;20457;-88
2021/10/20 02:25:36;;;;;;;5.37;3.20;;;14.90;1.00;;;;;;5024837;28;20460;-87
2021/10/20 02:28:01;;;;;;;4.50;2.70;;;14.90;1.00;;;;;;5029151;28;20453;-88
2021/10/20 02:30:27;;;;;;;5.03;3.27;;;14.80;1.00;;;;;;5027361;28;20206;-87
2021/10/20 02:32:54;;;;;;;8.60;3.10;;;14.80;1.00;;;;;;5027618;28;20218;-88
2021/10/20 02:35:19;;;;;;;7.60;4.00;;;14.70;1.00;;;;;;5030144;28;20190;-87
2021/10/20 02:37:45;;;;;;;4.77;3.50;;;14.80;1.00;;;;;;5027387;28;20454;-87
2021/10/20 02:40:12;;;;;;;5.23;3.23;;;14.80;1.00;;;;;;5028103;28;20519;-87
2021/10/20 02:42:39;;;;;;;4.03;3.20;;;14.80;1.00;;;;;;5027896;28;20207;-86
2021/10/20 02:45:06;;;;;;;4.47;3.30;;;14.80;1.00;;;;;;5024267;28;20462;-87
2021/10/20 02:47:32;;;;;;;6.00;3.40;;;14.90;1.00;;;;;;5027140;28;20433;-87
2021/10/20 02:49:57;;;;;;;5.20;3.30;;;14.80;1.00;;;;;;5027079;28;20502;-89
2021/10/20 02:52:23;;;;;;;5.87;3.40;;;14.80;1.00;;;;;;5028775;28;20667;-87
2021/10/20 02:54:49;;;;;;;6.50;3.40;;;14.90;1.00;;;;;;5028651;28;20183;-87
2021/10/20 02:57:14;;;;;;;8.60;3.73;;;15.00;1.00;;;;;;5029838;28;20233;-87
2021/10/20 02:59:40;;;;;;;7.13;3.30;;;15.00;1.00;;;;;;5026999;28;20207;-91
2021/10/20 03:02:06;;;;;;;4.87;3.30;;;15.10;1.00;;;;;;5024009;28;20179;-85
2021/10/20 03:04:32;;;;;;;5.90;4.00;;;14.90;1.00;;;;;;5031678;28;20183;-86
2021/10/20 03:06:58;;;;;;;5.00;4.00;;;14.90;1.00;;;;;;5028386;28;20465;-86
2021/10/20 03:09:23;;;;;;;4.00;3.30;;;15.00;1.00;;;;;;5025619;28;20244;-87
2021/10/20 03:11:49;;;;;;;6.13;3.27;;;15.00;1.00;;;;;;5026971;28;20862;-86
2021/10/20 03:14:15;;;;;;;5.30;3.40;;;15.00;1.00;;;;;;5031335;28;20183;-87
2021/10/20 03:16:41;;;;;;;4.57;3.20;;;15.10;1.00;;;;;;5022833;28;20222;-85
2021/10/20 03:19:07;;;;;;;3.70;3.10;;;15.10;1.00;;;;;;5025948;28;20536;-86
2021/10/20 03:21:33;;;;;;;5.20;3.90;;;15.10;1.00;;;;;;5023582;28;20464;-87
2021/10/20 03:23:58;;;;;;;11.90;3.60;;;15.20;1.00;;;;;;5026701;28;21145;-86
2021/10/20 03:26:24;;;;;;;4.27;3.10;;;15.20;1.00;;;;;;5023706;28;20202;-88
2021/10/20 03:28:50;;;;;;;6.27;3.83;;;15.00;1.00;;;;;;5023456;28;20191;-87
2021/10/20 03:31:17;;;;;;;8.53;4.07;;;15.00;1.00;;;;;;5023612;28;20792;-88
2021/10/20 03:33:43;;;;;;;4.13;3.33;;;15.00;1.00;;;;;;5024501;28;20193;-86
2021/10/20 03:36:09;;;;;;;4.00;3.40;;;15.00;1.00;;;;;;5026863;28;20580;-86
2021/10/20 03:38:35;;;;;;;4.40;3.23;;;15.00;1.00;;;;;;5029747;28;20876;-86
2021/10/20 03:41:01;;;;;;;4.13;3.20;;;15.10;1.00;;;;;;5024534;28;20588;-88
2021/10/20 03:43:26;;;;;;;4.03;3.30;;;15.10;1.00;;;;;;5020357;28;21072;-87
2021/10/20 03:45:52;;;;;;;6.87;3.73;;;15.10;1.00;;;;;;5022670;28;20285;-88
2021/10/20 03:48:18;;;;;;;8.40;3.87;;;15.10;1.00;;;;;;5025965;28;20198;-88
2021/10/20 03:50:43;;;;;;;7.50;3.40;;;15.30;1.00;;;;;;5026071;28;20207;-88
2021/10/20 03:53:09;;;;;;;3.87;3.10;;;15.40;1.00;;;;;;5022199;28;20191;-87
2021/10/20 03:55:35;;;;;;;4.40;3.80;;;15.20;1.00;;;;;;5024994;28;20675;-86
2021/10/20 03:58:01;;;;;;;5.67;3.83;;;15.20;1.00;;;;;;5027220;28;20198;-87
2021/10/20 04:00:27;;;;;;;5.07;3.97;;;15.30;1.00;;;;;;5023248;28;20187;-88
2021/10/20 04:02:53;;;;;;;4.73;3.40;;;15.30;1.00;;;;;;5021366;28;20515;-88
2021/10/20 04:05:20;;;;;;;3.67;3.27;;;15.30;1.00;;;;;;5004018;28;21120;-87
2021/10/20 04:07:49;;;;;;;4.63;3.27;;;15.30;1.00;;;;;;5022290;28;20450;-87
2021/10/20 04:10:20;;;;;;;6.17;4.00;;;15.20;1.00;;;;;;5025337;28;20455;-86
2021/10/20 04:12:46;;;;;;;8.43;4.10;;;15.10;1.00;;;;;;5024173;28;20472;-86
2021/10/20 04:15:14;;;;;;;5.73;3.97;;;15.10;1.00;;;;;;5027281;28;20446;-87
2021/10/20 04:17:39;;;;;;;7.10;3.60;;;15.00;1.00;;;;;;5023082;28;21891;-88
2021/10/20 04:20:16;;;;;;;4.83;3.87;;;15.00;1.00;;;;;;5022133;28;20441;-88
2021/10/20 04:22:43;;;;;;;10.47;4.10;;;14.90;1.00;;;;;;5021844;28;20186;-87
2021/10/20 04:25:10;;;;;;;4.30;3.47;;;15.00;1.00;;;;;;5024578;28;20449;-88
2021/10/20 04:27:36;;;;;;;6.10;3.90;;;15.10;1.00;;;;;;5028836;28;20522;-87
2021/10/20 04:30:03;;;;;;;8.50;4.27;;;15.00;1.00;;;;;;5031984;28;20453;-88
2021/10/20 04:32:29;;;;;;;6.23;3.67;;;15.00;1.00;;;;;;5015672;28;20449;-87
2021/10/20 04:34:55;;;;;;;5.70;3.50;;;15.10;1.00;;;;;;5011543;28;20479;-86
2021/10/20 04:37:25;;;;;;;7.93;4.17;;;15.10;1.00;;;;;;5028880;28;20310;-87
2021/10/20 04:39:58;;;;;;;5.90;3.80;;;15.00;1.00;;;;;;5022536;28;20492;-86
2021/10/20 04:42:25;;;;;;;4.40;3.90;;;15.10;1.00;;;;;;5023244;28;20472;-85
2021/10/20 04:44:52;;;;;;;6.80;4.07;;;15.00;1.00;;;;;;5032218;28;20484;-87
2021/10/20 04:47:18;;;;;;;4.70;3.60;;;15.00;1.00;;;;;;5027649;28;20453;-87
2021/10/20 04:49:44;;;;;;;9.90;4.20;;;14.90;1.00;;;;;;5025609;28;20941;-85
2021/10/20 04:52:10;;;;;;;6.03;3.63;;;14.90;1.00;;;;;;5024919;28;20445;-86
2021/10/20 04:54:36;;;;;;;7.20;4.13;;;15.00;1.00;;;;;;5016655;28;21066;-86
2021/10/20 04:57:02;;;;;;;8.47;3.53;;;14.90;1.00;;;;;;5024315;28;20597;-84
2021/10/20 04:59:31;;;;;;;8.13;4.10;;;14.90;1.00;;;;;;5029454;28;20442;-87
2021/10/20 05:01:58;;;;;;;5.03;3.77;;;15.00;1.00;;;;;;5022414;28;20278;-87
2021/10/20 05:04:24;;;;;;;9.77;4.40;;;15.00;1.00;;;;;;5025915;28;20453;-86
2021/10/20 05:06:49;;;;;;;6.40;3.73;;;15.00;1.00;;;;;;5015946;28;20471;-85
2021/10/20 05:09:15;;;;;;;5.47;3.97;;;15.00;1.00;;;;;;5020769;28;20532;-85
2021/10/20 05:11:41;;;;;;;4.23;3.10;;;15.00;1.00;;;;;;5025565;28;20793;-86
2021/10/20 05:14:07;;;;;;;5.27;3.87;;;14.90;1.00;;;;;;5032911;28;20531;-86
2021/10/20 05:16:32;;;;;;;6.73;3.97;;;15.00;1.00;;;;;;5026395;28;20477;-86
2021/10/20 05:18:58;;;;;;;7.77;4.10;;;15.00;1.00;;;;;;5025187;28;20183;-86
2021/10/20 05:21:24;;;;;;;8.10;4.70;;;15.00;1.00;;;;;;5029814;28;20195;-85
2021/10/20 05:23:50;;;;;;;6.73;4.10;;;15.10;1.00;;;;;;5031266;28;20210;-86
2021/10/20 05:26:17;;;;;;;5.13;3.87;;;15.10;1.00;;;;;;5029607;28;20260;-86
2021/10/20 05:28:43;;;;;;;7.87;4.20;;;15.00;1.00;;;;;;5031601;28;20515;-88
2021/10/20 05:31:09;;;;;;;6.73;3.93;;;15.00;1.00;;;;;;5047673;28;20469;-87
2021/10/20 05:33:35;;;;;;;9.30;4.90;;;15.00;1.00;;;;;;5027392;28;20502;-86
2021/10/20 05:36:01;;;;;;;6.97;3.97;;;15.10;1.00;;;;;;5033572;28;20222;-86
2021/10/20 05:38:26;;;;;;;6.90;4.47;;;15.20;1.00;;;;;;5034644;28;21868;-85
2021/10/20 05:40:52;;;;;;;4.47;3.70;;;15.20;1.00;;;;;;5032621;28;20626;-87
2021/10/20 05:43:19;;;;;;;9.00;4.20;;;15.20;1.00;;;;;;5031840;28;20715;-86
2021/10/20 05:45:46;;;;;;;5.67;4.30;;;15.10;1.00;;;;;;5030295;28;20462;-84
2021/10/20 05:48:12;;;;;;;7.93;4.83;;;15.20;1.00;;;;;;5034178;28;20440;-85
2021/10/20 05:50:38;;;;;;;7.63;4.17;;;15.20;1.00;;;;;;5028800;28;20460;-87
2021/10/20 05:53:03;;;;;;;5.07;4.57;;;15.20;1.00;;;;;;5026954;28;20447;-85
2021/10/20 05:55:29;;;;;;;4.87;4.20;;;15.20;1.00;;;;;;5029531;28;20232;-88
2021/10/20 05:57:55;;;;;;;4.77;4.20;;;15.30;1.00;;;;;;5035731;28;20992;-86
2021/10/20 06:00:20;;;;;;;12.20;4.67;;;15.30;1.00;;;;;;5032881;28;20202;-86
2021/10/20 06:02:46;;;;;;;5.47;4.60;;;15.30;1.00;;;;;;5035618;28;20191;-87
2021/10/20 06:05:12;;;;;;;5.20;4.33;;;15.30;1.00;;;;;;5034174;28;20187;-87
2021/10/20 06:07:42;;;;;;;5.13;4.10;;;15.30;1.00;;;;;;5035946;28;20270;-86
2021/10/20 06:10:09;;;;;;;6.90;4.10;;;15.30;1.00;;;;;;5038774;28;20197;-87
2021/10/20 06:12:35;;;;;;;6.30;4.30;;;15.20;1.00;;;;;;5036803;28;20966;-86
2021/10/20 06:15:01;;;;;;;5.30;4.00;;;15.20;1.00;;;;;;5030309;28;20449;-85
2021/10/20 06:17:26;;;;;;;8.10;3.70;;;15.20;1.00;;;;;;5038811;28;20210;-88
2021/10/20 06:19:52;;;;;;;10.43;4.70;;;15.20;1.00;;;;;;5040590;28;20180;-87
2021/10/20 06:22:17;;;;;;;6.90;4.43;;;15.20;1.00;;;;;;5037401;28;20182;-86
2021/10/20 06:24:46;;;;;;;7.60;4.80;;;15.20;1.00;;;;;;5038412;28;20244;-85
2021/10/20 06:27:11;;;;;;;5.00;4.13;;;15.30;1.00;;;;;;5039552;28;20207;-87
2021/10/20 06:29:37;;;;;;;7.00;4.70;;;15.30;1.00;;;;;;5035203;28;20449;-86
2021/10/20 06:32:03;;;;;;;5.23;4.73;;;15.30;1.00;;;;;;5033200;28;20278;-85
2021/10/20 06:34:32;;;;;;;7.57;4.80;;;15.20;1.00;;;;;;5040517;28;20321;-86
2021/10/20 06:36:58;;;;;;;7.90;4.80;;;15.20;1.00;;;;;;5039005;28;20842;-86
2021/10/20 06:39:24;;;;;;;6.40;3.40;;;15.10;1.00;;;;;;5038458;28;20449;-85
2021/10/20 06:41:51;;;;;;;5.63;3.90;;;15.10;1.00;;;;;;5034355;28;20216;-87
2021/10/20 06:44:18;;;;;;;6.03;4.70;;;15.10;1.00;;;;;;5039251;28;20448;-87
2021/10/20 06:46:44;;;;;;;5.40;3.93;;;15.00;1.00;;;;;;5028965;28;20468;-87
2021/10/20 06:49:09;;;;;;;7.80;4.10;;;15.00;1.00;;;;;;5035709;28;20778;-86
2021/10/20 06:51:35;;;;;;;6.90;4.43;;;15.00;1.00;;;;;;5027230;28;20194;-89
2021/10/20 06:54:01;;;;;;;6.53;4.20;;;15.00;1.00;;;;;;5026659;28;20522;-87
2021/10/20 06:56:27;;;;;;;6.73;4.90;;;14.90;1.00;;;;;;5024151;28;20230;-87
2021/10/20 06:58:52;;;;;;;6.30;4.03;;;14.90;1.00;;;;;;5026867;28;20180;-87
2021/10/20 07:01:18;;;;;;;6.60;4.63;;;14.90;1.00;;;;;;5027076;28;20214;-91
2021/10/20 07:03:44;;;;;;;5.57;4.00;;;14.90;1.00;;;;;;5026383;28;20240;-88
2021/10/20 07:06:11;;;;;;;5.80;4.03;;;15.00;1.00;;;;;;5030304;28;20191;-87
2021/10/20 07:08:37;;;;;;;8.00;4.60;;;15.00;1.00;;;;;;5023663;28;20472;-89
2021/10/20 07:11:03;;;;;;;5.63;4.03;;;15.00;1.00;;;;;;5022575;28;20465;-90
2021/10/20 07:13:29;;;;;;;7.40;4.57;;;15.10;1.00;;;;;;5021380;28;20235;-89
2021/10/20 07:15:57;;;;;;;6.83;4.57;;;15.20;1.00;;;;;;5022931;28;20611;-88
2021/10/20 07:18:23;;;;;;;5.83;4.63;;;15.20;1.00;;;;;;5025194;28;20476;-87
2021/10/20 07:20:49;;;;;;;5.80;4.13;;;15.30;1.00;;;;;;5008985;28;21307;-90
2021/10/20 07:23:14;;;;;;;4.20;3.63;;;15.30;1.00;;;;;;5024183;28;20183;-90
2021/10/20 07:25:40;;;;;;;4.80;3.70;;;15.30;1.00;;;;;;5024415;28;20201;-87
2021/10/20 07:28:06;;;;;;;6.37;3.87;;;15.30;1.00;;;;;;5022707;28;20408;-87
2021/10/20 07:30:31;;;;;;;8.73;4.90;;;15.30;1.00;;;;;;5028330;28;20189;-87
2021/10/20 07:32:57;;;;;;;7.60;4.40;;;15.30;1.00;;;;;;5028267;28;20187;-88
2021/10/20 07:35:23;;;;;;;7.00;4.23;;;15.30;1.00;;;;;;5022720;28;20195;-88
2021/10/20 07:37:48;;;;;;;5.53;4.93;;;15.30;1.00;;;;;;5030347;28;20198;-86
2021/10/20 07:40:15;;;;;;;7.43;5.20;;;15.30;1.00;;;;;;5025104;28;20207;-86
2021/10/20 07:42:44;;;;;;;7.67;5.10;;;15.40;1.00;;;;;;5025237;28;20214;-88
2021/10/20 07:45:11;;;;;;;6.43;4.43;;;15.40;1.00;;;;;;5023635;28;20536;-87
2021/10/20 07:47:37;;;;;;;5.43;4.10;;;15.40;1.00;;;;;;5017762;28;20464;-88
2021/10/20 07:50:05;;;;;;;7.13;4.60;;;15.50;1.00;;;;;;5018438;28;20447;-88
2021/10/20 07:52:33;;;;;;;6.10;4.80;;;15.50;1.00;;;;;;5024965;28;20191;-89
2021/10/20 07:54:59;;;;;;;5.63;4.67;;;15.50;1.00;;;;;;5022366;28;20449;-89
2021/10/20 07:57:25;;;;;;;5.80;4.50;;;15.60;1.00;;;;;;5031440;28;20921;-87
2021/10/20 07:59:51;;;;;;;7.20;4.40;;;15.60;1.00;;;;;;5021521;28;20544;-88
2021/10/20 08:02:21;;;;;;;5.27;4.23;;;15.60;1.00;;;;;;5022357;28;20946;-87
2021/10/20 08:04:47;;;;;;;6.00;4.67;;;15.60;1.00;;;;;;5025702;28;20491;-88
2021/10/20 08:07:13;;;;;;;7.07;4.70;;;15.60;1.00;;;;;;5023963;28;20445;-88
2021/10/20 08:09:39;;;;;;;6.33;4.83;;;15.70;1.00;;;;;;5012166;28;20183;-88
2021/10/20 08:12:04;;;;;;;5.87;5.00;;;15.70;1.00;;;;;;5022849;28;20505;-88
2021/10/20 08:14:32;;;;;;;7.20;5.20;;;15.80;1.00;;;;;;5022861;28;20544;-88
2021/10/20 08:16:58;;;;;;;6.13;4.17;;;15.80;1.00;;;;;;5027821;28;20223;-88
2021/10/20 08:19:23;;;;;;;6.70;4.90;;;15.80;1.00;;;;;;5025254;28;20441;-89
2021/10/20 08:21:49;;;;;;;4.97;4.43;;;15.80;1.00;;;;;;5024679;28;20549;-87
2021/10/20 08:24:14;;;;;;;8.00;4.70;;;15.80;1.00;;;;;;5028032;28;20190;-87
2021/10/20 08:26:40;;;;;;;8.20;5.50;;;15.80;1.00;;;;;;5022569;28;20290;-90
2021/10/20 08:29:07;;;;;;;5.83;5.10;;;15.80;1.00;;;;;;5017948;28;20221;-86
2021/10/20 08:31:33;;;;;;;7.57;5.57;;;15.70;1.00;;;;;;5024372;28;20186;-89
2021/10/20 08:33:59;;;;;;;8.03;4.83;;;15.70;1.00;;;;;;5024310;28;20445;-87
2021/10/20 08:36:27;;;;;;;7.27;4.30;;;15.70;1.00;;;;;;5019819;28;20675;-90
2021/10/20 08:38:53;;;;;;;5.93;4.63;;;15.70;1.00;;;;;;5024273;28;20583;-90
2021/10/20 08:41:19;;;;;;;8.53;4.70;;;15.70;1.00;;;;;;5021295;28;20473;-87
2021/10/20 08:43:46;;;;;;;9.10;4.30;;;15.70;1.00;;;;;;5015187;28;20203;-87
2021/10/20 08:46:13;;;;;;;5.67;4.60;;;15.60;1.00;;;;;;5026023;28;20499;-86
2021/10/20 08:48:41;;;;;;;7.33;5.07;;;15.60;1.00;;;;;;5022817;28;20449;-87
2021/10/20 08:51:07;;;;;;;7.13;5.10;;;15.60;1.00;;;;;;5025312;28;21068;-87
2021/10/20 08:53:32;;;;;;;4.63;4.17;;;15.70;1.00;;;;;;5027978;28;20441;-86
2021/10/20 08:56:00;;;;;;;7.40;5.17;;;15.70;1.00;;;;;;5026927;28;21013;-87
2021/10/20 08:58:25;;;;;;;6.57;4.17;;;16.00;1.00;;;;;;5016130;28;20210;-87
2021/10/20 09:00:51;;;;;;;6.60;5.43;;;16.10;1.00;;;;;;5019923;28;20450;-84
2021/10/20 09:03:18;;;;;;;9.23;5.40;;;16.30;1.00;;;;;;5029063;28;20191;-87
2021/10/20 09:05:44;;;;;;;6.80;5.27;;;16.40;1.00;;;;;;5025161;28;20218;-89
2021/10/20 09:08:09;;;;;;;5.37;4.63;;;16.40;1.00;;;;;;5020306;28;20957;-89
2021/10/20 09:10:35;;;;;;;10.20;4.87;;;16.30;1.00;;;;;;5017769;28;20709;-88
2021/10/20 09:13:02;;;;;;;5.17;4.43;;;16.30;1.00;;;;;;5007424;28;21295;-89
2021/10/20 09:15:32;;;;;;;9.23;5.17;;;16.30;1.00;;;;;;5015233;28;20858;-88
2021/10/20 09:18:07;;;;;;;8.23;4.90;;;16.20;1.00;;;;;;5014200;28;20766;-90
2021/10/20 09:20:41;;;;;;;9.40;5.10;;;16.20;1.00;;;;;;5015939;28;20449;-88
2021/10/20 09:23:19;;;;;;;7.03;4.93;;;16.20;1.00;;;;;;5016305;28;20469;-87
2021/10/20 09:25:58;;;;;;;9.10;4.90;;;16.20;1.00;;;;;;5020530;28;20506;-87
2021/10/20 09:28:34;;;;;;;6.60;4.97;;;16.10;1.00;;;;;;5019923;28;20461;-85
2021/10/20 09:31:04;;;;;;;5.40;3.90;;;16.10;1.00;;;;;;5019884;28;20847;-86
2021/10/20 09:33:32;;;;;;;6.57;3.97;;;16.20;1.00;;;;;;5016952;28;20437;-85
2021/10/20 09:36:06;;;;;;;10.00;3.97;;;16.30;1.00;;;;;;5019304;28;20488;-86
2021/10/20 09:38:34;;;;;;;5.37;4.47;;;16.30;1.00;;;;;;5013406;28;20534;-89
2021/10/20 09:41:04;;;;;;;10.10;5.30;;;16.20;1.00;;;;;;5020024;28;20475;-87
2021/10/20 09:43:30;;;;;;;5.50;4.43;;;16.20;1.00;;;;;;5013176;28;21093;-86
2021/10/20 09:46:02;;;;;;;5.77;4.83;;;16.10;1.00;;;;;;5017001;28;20460;-87
2021/10/20 09:48:28;;;;;;;5.07;4.23;;;16.10;1.00;;;;;;5022242;28;20516;-85
2021/10/20 09:51:08;;;;;;;5.10;4.40;;;16.10;1.00;;;;;;5016508;28;20453;-87
2021/10/20 09:53:37;;;;;;;6.30;4.43;;;16.20;1.00;;;;;;5024558;28;20215;-86
2021/10/20 09:56:31;;;;;;;6.00;4.03;;;16.20;1.00;;;;;;5026600;28;20465;-87
2021/10/20 09:58:58;;;;;;;4.47;3.97;;;16.10;1.00;;;;;;5021684;28;20481;-88
2021/10/20 10:01:26;;;;;;;7.17;4.70;;;16.00;1.00;;;;;;5017339;28;20482;-92
2021/10/20 10:03:54;;;;;;;6.20;4.60;;;16.00;1.00;;;;;;5019839;28;20507;-87
2021/10/20 10:06:20;;;;;;;6.23;4.47;;;15.90;1.00;;;;;;5020381;28;20476;-89
2021/10/20 10:08:46;;;;;;;12.67;4.77;;;15.90;1.00;;;;;;5021074;28;20464;-92
2021/10/20 10:11:13;;;;;;;5.47;4.60;;;15.90;1.00;;;;;;5022368;28;20850;-89
2021/10/20 10:13:45;;;;;;;5.47;4.40;;;16.00;1.00;;;;;;5016779;28;20576;-86
2021/10/20 10:16:12;;;;;;;8.00;4.20;;;16.00;1.00;;;;;;5027893;28;20477;-89
2021/10/20 10:18:39;;;;;;;5.90;5.30;;;16.10;1.00;;;;;;5020734;28;20512;-88
2021/10/20 10:21:28;;;;;;;9.17;4.57;;;16.10;1.00;;;;;;5023340;28;20458;-89
2021/10/20 10:23:56;;;;;;;5.37;4.37;;;16.10;1.00;;;;;;5023005;28;20454;-87
2021/10/20 10:26:21;;;;;;;6.77;4.93;;;16.00;1.00;;;;;;5021530;28;20477;-87
2021/10/20 10:29:08;;;;;;;8.47;5.07;;;16.10;1.00;;;;;;5024505;28;20615;-86
2021/10/20 10:31:41;;;;;;;15.20;5.10;;;16.10;1.00;;;;;;5026363;28;20567;-89
2021/10/20 10:34:15;;;;;;;7.70;5.27;;;16.00;1.00;;;;;;5026391;28;21063;-85
2021/10/20 10:36:57;;;;;;;6.10;5.17;;;15.90;1.00;;;;;;5030062;28;21525;-89
2021/10/20 10:39:23;;;;;;;6.27;5.23;;;15.80;1.00;;;;;;5027468;28;20452;-88
2021/10/20 10:41:49;;;;;;;7.17;5.43;;;15.70;1.00;;;;;;5024487;28;21028;-87
2021/10/20 10:44:20;;;;;;;7.00;5.40;;;15.60;1.00;;;;;;5029496;28;20210;-86
2021/10/20 10:47:05;;;;;;;7.40;4.83;;;15.40;1.00;;;;;;5027721;28;20452;-91
2021/10/20 10:49:35;;;;;;;7.83;5.80;;;15.50;1.00;;;;;;5030250;28;20448;-89
2021/10/20 10:52:19;;;;;;;9.57;5.90;;;15.50;1.00;;;;;;5029752;28;20457;-86
2021/10/20 10:55:03;;;;;;;7.73;6.30;;;15.60;1.00;;;;;;5028124;28;20984;-87
2021/10/20 10:57:57;;;;;;;6.50;5.53;;;15.60;1.00;;;;;;5031037;28;20527;-85
2021/10/20 11:00:25;;;;;;;9.50;5.90;;;15.60;1.00;;;;;;5030400;28;21400;-86
2021/10/20 11:02:59;;;;;;;5.83;5.23;;;15.70;16.90;;;;;;5021630;28;20863;-85
2021/10/20 11:05:30;;;;;;;6.33;5.63;;;15.70;1.00;;;;;;5029589;28;20444;-87
2021/10/20 11:08:05;;;;;;;8.27;5.00;;;15.70;1.00;;;;;;5029728;28;20563;-84
2021/10/20 11:10:34;;;;;;;7.37;5.57;;;15.70;1.00;;;;;;5031063;28;20449;-86
2021/10/20 11:13:00;;;;;;;8.63;6.10;;;15.70;1.00;;;;;;5028718;28;20496;-86
2021/10/20 11:15:28;;;;;;;8.00;5.70;;;15.70;1.00;;;;;;5027532;28;20518;-83
2021/10/20 11:17:55;;;;;;;8.53;6.30;;;15.70;1.00;;;;;;5027258;28;20452;-85
2021/10/20 11:20:23;;;;;;;8.00;6.00;;;15.70;1.00;;;;;;5027190;28;20564;-87
2021/10/20 11:22:54;;;;;;;7.93;5.47;;;15.60;21.20;;;;;;5027976;28;20438;-85
2021/10/20 11:25:21;;;;;;;9.60;7.07;;;15.30;99.90;;;;;;5027056;28;20548;-89
2021/10/20 11:27:48;;;;;;;7.70;6.20;;;15.20;99.90;;;;;;5028992;28;20599;-88
2021/10/20 11:30:17;;;;;;;7.93;6.53;;;15.10;99.90;;;;;;5028097;28;20449;-87
2021/10/20 11:32:44;;;;;;;9.60;7.33;;;15.00;99.90;;;;;;5025352;28;20470;-88
2021/10/20 11:35:20;;;;;;;10.20;6.63;;;15.00;99.90;;;;;;5020544;28;21165;-88
2021/10/20 11:38:09;;;;;;;9.60;7.33;;;15.00;99.90;;;;;;5027002;28;20477;-87
2021/10/20 11:40:39;;;;;;;8.00;6.53;;;15.10;99.90;;;;;;5024619;28;20450;-87
2021/10/20 11:43:14;;;;;;;13.23;6.30;;;15.00;99.90;;;;;;5024218;28;20466;-87
2021/10/20 11:45:40;;;;;;;9.57;6.80;;;15.10;99.90;;;;;;5025546;28;20992;-89
2021/10/20 11:48:06;;;;;;;8.20;5.73;;;15.10;99.90;;;;;;5013771;28;25619;-85
2021/10/20 11:50:32;;;;;;;8.03;6.60;;;15.10;99.90;;;;;;5027851;28;20450;-86
2021/10/20 11:53:01;;;;;;;8.23;7.27;;;15.20;99.90;;;;;;5019379;28;20211;-85
2021/10/20 11:55:27;;;;;;;7.30;6.20;;;15.20;99.90;;;;;;5022947;28;20446;-90
2021/10/20 11:57:52;;;;;;;9.37;7.20;;;15.30;99.90;;;;;;5024197;28;20511;-86
2021/10/20 12:00:19;;;;;;;13.23;7.10;;;15.30;99.90;;;;;;5023959;28;20454;-87
2021/10/20 12:02:45;;;;;;;9.27;6.50;;;15.30;99.90;;;;;;5021506;28;20213;-86
2021/10/20 12:05:11;;;;;;;14.50;6.07;;;15.40;94.50;;;;;;5022561;28;20453;-89
2021/10/20 12:07:37;;;;;;;5.87;5.20;;;15.40;99.90;;;;;;5024754;28;20277;-85
2021/10/20 12:10:05;;;;;;;7.00;6.27;;;15.40;86.10;;;;;;5021392;28;20199;-86
2021/10/20 12:12:33;;;;;;;9.17;7.60;;;15.50;93.60;;;;;;5026253;28;20213;-83
2021/10/20 12:14:59;;;;;;;7.03;6.27;;;15.50;67.20;;;;;;5024252;28;20544;-87
2021/10/20 12:17:28;;;;;;;7.23;6.30;;;15.60;76.40;;;;;;5026367;28;20535;-87
2021/10/20 12:19:56;;;;;;;7.20;6.50;;;15.70;58.30;;;;;;5021350;28;20688;-85
2021/10/20 12:22:24;;;;;;;9.07;6.57;;;15.90;60.40;;;;;;5016932;28;20445;-86
2021/10/20 12:24:51;;;;;;;9.83;5.97;;;15.90;12.50;;;;;;5017926;28;20480;-87
2021/10/20 12:27:20;;;;;;;9.10;5.93;;;16.00;29.30;;;;;;5020033;28;20541;-88
2021/10/20 12:29:51;;;;;;;7.00;6.30;;;16.10;46.30;;;;;;5015925;28;20877;-87
2021/10/20 12:32:27;;;;;;;6.47;5.47;;;16.10;4.10;;;;;;5025673;28;20461;-85
2021/10/20 12:35:11;;;;;;;10.27;5.97;;;16.10;1.00;;;;;;5027389;28;20823;-86
2021/10/20 12:37:40;;;;;;;8.10;5.57;;;16.10;8.00;;;;;;5026003;28;20481;-87
2021/10/20 12:40:12;;;;;;;8.23;5.87;;;16.10;1.00;;;;;;5023102;28;20573;-85
2021/10/20 12:42:45;;;;;;;10.20;6.50;;;16.10;1.00;;;;;;5019401;28;20558;-87
2021/10/20 12:45:12;;;;;;;8.40;6.20;;;16.10;1.00;;;;;;5020780;28;20539;-87
2021/10/20 12:47:41;;;;;;;6.33;5.67;;;16.10;1.00;;;;;;5025786;28;20457;-87
2021/10/20 12:50:07;;;;;;;7.40;6.70;;;16.10;1.00;;;;;;5024862;28;20848;-85
2021/10/20 12:52:37;;;;;;;11.50;6.20;;;16.10;1.00;;;;;;5026052;28;20902;-86
2021/10/20 12:55:05;;;;;;;6.50;5.50;;;16.20;1.00;;;;;;5021990;28;22095;-85
2021/10/20 12:57:32;;;;;;;8.37;6.23;;;16.20;1.00;;;;;;5026343;28;20481;-87